Archival Weather

Chicago O'Hare International

Chicago, Illinois (KORD)

Report from: Wednesday, February 1, 2023 1:51 AM CST
Current time: Tuesday, July 16, 2024 10:50 AM CDT

Current weather – Weather history – Daily summaries
Weather forecast

Temperature-14.4°C (6.1°F)
Wind chill-21.5°C (-6.8°F)
Dew point-20.0°C (-4.0°F)
Winds 7 kts (3.6 m/s, 8.1 mph) West-Southwest (240°)
Visibility10 mi. (16.1 km)
Clouds Sky clear
Altimeter30.33 in.Hg (1027 mB)
Relative humidity62 %
Density altitude-4,217 ft. (-1,285 m)
Sea-level pressure102.9 kPa (1029 mB, 30.37 in.Hg)
Remarks Automated weather observing station with precipitation discriminator
Flight conditions Visual Meteorological Conditions
Raw dataKORD 010751Z 24007KT 10SM CLR M14/M20 A3033 RMK AO2 SLP286 T11441200
An error has occurred. This application may no longer respond until reloaded. Reload 🗙